createdAt,value
2019-06-07T00:01:51.656Z,100148.23
2019-06-07T00:04:25.114Z,100145.66
2019-06-07T00:06:59.488Z,100151.07
2019-06-07T00:09:32.731Z,100149.23
2019-06-07T00:12:09.072Z,100149.73
2019-06-07T00:14:41.386Z,100150.41
2019-06-07T00:17:17.202Z,100145.00
2019-06-07T00:19:50.243Z,100147.20
2019-06-07T00:22:33.122Z,100148.56
2019-06-07T00:24:59.003Z,100147.05
2019-06-07T00:27:32.387Z,100142.63
2019-06-07T00:30:40.114Z,100147.37
2019-06-07T00:32:47.589Z,100142.29
2019-06-07T00:35:22.438Z,100143.66
2019-06-07T00:37:56.057Z,100143.14
2019-06-07T00:40:32.046Z,100141.60
2019-06-07T00:43:04.339Z,100141.60
2019-06-07T00:45:37.637Z,100143.31
2019-06-07T00:48:21.357Z,100145.84
2019-06-07T00:50:45.990Z,100139.23
2019-06-07T00:53:29.155Z,100136.20
2019-06-07T00:55:54.711Z,100130.78
2019-06-07T00:58:29.557Z,100140.27
2019-06-07T01:01:03.109Z,100142.12
2019-06-07T01:03:36.381Z,100138.73
2019-06-07T01:06:09.574Z,100136.19
2019-06-07T01:08:42.889Z,100133.66
2019-06-07T01:11:18.542Z,100131.78
2019-06-07T01:13:51.478Z,100126.88
2019-06-07T01:16:26.425Z,100123.31
2019-06-07T01:18:59.873Z,100121.64
2019-06-07T01:21:33.272Z,100121.97
2019-06-07T01:24:12.465Z,100119.95
2019-06-07T01:26:41.873Z,100125.86
2019-06-07T01:29:17.709Z,100134.81
2019-06-07T01:31:50.353Z,100127.88
2019-06-07T01:34:26.808Z,100130.06
2019-06-07T01:36:58.861Z,100131.56
2019-06-07T01:39:32.344Z,100134.60
2019-06-07T01:42:05.833Z,100139.48
2019-06-07T01:44:39.211Z,100145.41
2019-06-07T01:47:12.641Z,100146.06
2019-06-07T01:49:46.070Z,100149.94
2019-06-07T01:52:20.074Z,100152.65
2019-06-07T01:54:58.662Z,100149.77
2019-06-07T01:57:44.834Z,100147.56
2019-06-07T02:00:08.761Z,100151.30
2019-06-07T02:02:42.218Z,100150.95
2019-06-07T02:05:15.675Z,100157.54
2019-06-07T02:07:49.037Z,100163.63
2019-06-07T02:10:26.123Z,100163.13
2019-06-07T02:12:58.107Z,100154.16
2019-06-07T02:15:36.425Z,100149.59
2019-06-07T02:18:06.517Z,100155.36
2019-06-07T02:20:39.902Z,100151.63
2019-06-07T02:23:13.262Z,100153.68
2019-06-07T02:25:50.479Z,100162.97
2019-06-07T02:28:30.084Z,100166.88
2019-06-07T02:30:59.957Z,100171.61
2019-06-07T02:33:39.139Z,100165.17
2019-06-07T02:36:07.016Z,100167.55
2019-06-07T02:38:40.481Z,100169.92
2019-06-07T02:41:13.876Z,100173.84
2019-06-07T02:43:47.260Z,100168.09
2019-06-07T02:46:32.533Z,100175.92
2019-06-07T02:48:59.871Z,100175.77
2019-06-07T02:51:40.722Z,100172.37
2019-06-07T02:54:08.395Z,100173.56
2019-06-07T02:56:56.149Z,100169.36
2019-06-07T02:59:17.132Z,100168.34
2019-06-07T03:01:50.879Z,100169.37
2019-06-07T03:04:28.556Z,100161.09
2019-06-07T03:07:02.774Z,100161.77
2019-06-07T03:09:37.071Z,100159.02
2019-06-07T03:12:12.779Z,100161.68
2019-06-07T03:14:46.416Z,100168.91
2019-06-07T03:17:21.291Z,100161.03
2019-06-07T03:19:57.016Z,100172.10
2019-06-07T03:22:32.681Z,100171.33
2019-06-07T03:25:07.707Z,100176.09
2019-06-07T03:27:49.174Z,100170.69
2019-06-07T03:32:49.258Z,100169.98
2019-06-07T03:35:21.510Z,100163.00
2019-06-07T03:37:53.780Z,100157.89
2019-06-07T03:40:26.702Z,100154.83
2019-06-07T03:42:59.224Z,100158.70
2019-06-07T03:45:33.064Z,100157.62
2019-06-07T03:50:41.851Z,100168.59
2019-06-07T03:53:11.757Z,100170.03
2019-06-07T03:55:43.966Z,100170.41
2019-06-07T03:58:37.112Z,100171.59
2019-06-07T04:00:50.419Z,100167.03
2019-06-07T04:03:33.609Z,100170.00
2019-06-07T04:05:56.688Z,100172.34
2019-06-07T04:08:30.648Z,100166.39
2019-06-07T04:11:02.825Z,100169.75
2019-06-07T04:13:41.503Z,100170.72
2019-06-07T04:16:08.889Z,100172.06
2019-06-07T04:18:42.519Z,100171.61
2019-06-07T04:21:15.031Z,100176.14
2019-06-07T04:23:47.292Z,100165.35
2019-06-07T04:26:19.574Z,100168.43
2019-06-07T04:29:31.769Z,100174.93
2019-06-07T04:31:25.779Z,100179.66
2019-06-07T04:33:58.016Z,100172.73
2019-06-07T04:36:47.547Z,100172.07
2019-06-07T04:39:07.070Z,100166.70
2019-06-07T04:41:40.921Z,100170.66
2019-06-07T04:44:13.471Z,100171.37
2019-06-07T04:46:47.229Z,100170.19
2019-06-07T04:49:20.908Z,100176.22
2019-06-07T04:51:54.192Z,100175.42
2019-06-07T04:54:26.626Z,100173.34
2019-06-07T04:56:58.933Z,100172.84
2019-06-07T05:00:04.319Z,100178.22
2019-06-07T05:02:05.248Z,100174.84
2019-06-07T05:04:39.820Z,100169.56
2019-06-07T05:07:11.631Z,100176.37
2019-06-07T05:09:43.892Z,100166.47
2019-06-07T05:12:16.143Z,100164.52
2019-06-07T05:14:48.420Z,100161.85
2019-06-07T05:17:20.664Z,100158.86
2019-06-07T05:19:52.924Z,100164.09
2019-06-07T05:22:25.141Z,100164.70
2019-06-07T05:24:57.569Z,100158.45
2019-06-07T05:27:32.591Z,100166.41
2019-06-07T05:30:24.298Z,100158.18
2019-06-07T05:32:45.210Z,100162.97
2019-06-07T05:35:15.049Z,100164.64
2019-06-07T05:37:47.392Z,100167.45
2019-06-07T05:40:22.661Z,100172.78
2019-06-07T05:42:55.066Z,100175.97
2019-06-07T05:45:37.649Z,100178.48
2019-06-07T05:48:07.555Z,100172.98
2019-06-07T05:50:54.724Z,100173.89
2019-06-07T05:53:13.809Z,100181.77
2019-06-07T05:55:47.701Z,100182.37
2019-06-07T05:58:19.958Z,100182.39
2019-06-07T06:00:52.197Z,100189.55
2019-06-07T06:03:24.532Z,100192.23
2019-06-07T06:05:57.020Z,100194.00
2019-06-07T06:08:29.295Z,100197.66
2019-06-07T06:11:01.560Z,100203.90
2019-06-07T06:13:36.498Z,100202.05
2019-06-07T06:16:09.142Z,100198.68
2019-06-07T06:18:45.800Z,100195.81
2019-06-07T06:21:19.693Z,100200.53
2019-06-07T06:23:51.968Z,100198.61
2019-06-07T06:26:23.171Z,100203.10
2019-06-07T06:28:56.350Z,100200.30
2019-06-07T06:31:28.749Z,100211.62
2019-06-07T06:34:01.063Z,100200.63
2019-06-07T06:36:33.320Z,100196.63
2019-06-07T06:39:07.857Z,100198.53
2019-06-07T06:41:53.710Z,100193.75
2019-06-07T06:44:14.085Z,100189.73
2019-06-07T06:46:56.762Z,100190.24
2019-06-07T06:49:20.398Z,100202.05
2019-06-07T06:51:53.823Z,100202.84
2019-06-07T06:54:40.010Z,100203.59
2019-06-07T06:57:18.023Z,100201.09
2019-06-07T06:59:39.038Z,100201.69
2019-06-07T07:02:08.257Z,100191.65
2019-06-07T07:04:42.315Z,100195.19
2019-06-07T07:07:14.899Z,100193.06
2019-06-07T07:09:51.513Z,100187.70
2019-06-07T07:12:21.058Z,100190.99
2019-06-07T07:14:56.052Z,100192.44
2019-06-07T07:17:47.947Z,100199.77
2019-06-07T07:20:02.284Z,100200.12
2019-06-07T07:22:34.615Z,100205.84
2019-06-07T07:25:09.654Z,100201.58
2019-06-07T07:27:42.237Z,100201.11
2019-06-07T07:30:36.319Z,100211.95
2019-06-07T07:32:50.687Z,100211.58
2019-06-07T07:35:22.712Z,100209.82
2019-06-07T07:37:59.556Z,100197.71
2019-06-07T07:40:56.812Z,100193.81
2019-06-07T07:43:03.003Z,100201.69
2019-06-07T07:45:35.343Z,100195.73
2019-06-07T07:48:15.252Z,100196.30
2019-06-07T07:50:41.749Z,100194.98
2019-06-07T07:53:14.040Z,100193.48
2019-06-07T07:55:51.515Z,100197.02
2019-06-07T07:58:20.319Z,100194.68
2019-06-07T08:01:00.253Z,100204.89
2019-06-07T08:03:26.486Z,100195.86
2019-06-07T08:06:00.171Z,100192.58
2019-06-07T08:08:32.871Z,100189.63
2019-06-07T08:11:05.138Z,100197.41
2019-06-07T08:13:37.501Z,100198.05
2019-06-07T08:16:15.971Z,100203.13
2019-06-07T08:18:43.619Z,100205.23
2019-06-07T08:21:25.523Z,100202.70
2019-06-07T08:23:51.560Z,100211.28
2019-06-07T08:26:23.887Z,100204.08
2019-06-07T08:28:59.024Z,100219.81
2019-06-07T08:31:30.025Z,100213.97
2019-06-07T08:34:02.383Z,100204.61
2019-06-07T08:36:41.919Z,100208.89
2019-06-07T08:39:08.722Z,100207.19
2019-06-07T08:41:53.980Z,100208.15
2019-06-07T08:44:23.217Z,100204.82
2019-06-07T08:46:56.597Z,100184.20
2019-06-07T08:49:22.848Z,100186.21
2019-06-07T08:52:04.516Z,100187.87
2019-06-07T08:54:30.115Z,100186.95
2019-06-07T08:57:20.143Z,100180.42
2019-06-07T08:59:36.265Z,100186.40
2019-06-07T09:02:22.971Z,100184.27
2019-06-07T09:04:43.189Z,100177.97
2019-06-07T09:07:20.003Z,100175.42
2019-06-07T09:09:59.761Z,100169.39
2019-06-07T09:12:25.206Z,100165.87
2019-06-07T09:15:12.113Z,100162.87
2019-06-07T09:17:31.402Z,100160.93
2019-06-07T09:20:10.473Z,100170.66
2019-06-07T09:22:39.505Z,100167.28
2019-06-07T09:25:20.739Z,100172.73
2019-06-07T09:27:46.306Z,100167.47
2019-06-07T09:30:39.575Z,100164.69
2019-06-07T09:33:12.632Z,100161.73
2019-06-07T09:35:44.891Z,100155.22
2019-06-07T09:38:25.643Z,100146.06
2019-06-07T09:40:51.251Z,100150.52
2019-06-07T09:46:01.023Z,100147.95
2019-06-07T09:49:09.942Z,100148.69
2019-06-07T09:51:19.138Z,100154.30
2019-06-07T09:53:41.775Z,100154.17
2019-06-07T09:56:13.982Z,100155.66
2019-06-07T09:58:52.578Z,100154.67
2019-06-07T10:01:20.274Z,100158.64
2019-06-07T10:03:52.456Z,100157.23
2019-06-07T10:06:24.749Z,100155.98
2019-06-07T10:11:31.611Z,100164.52
2019-06-07T10:14:04.514Z,100165.70
2019-06-07T10:16:46.329Z,100164.88
2019-06-07T10:19:10.714Z,100161.00
2019-06-07T10:21:42.966Z,100165.58
2019-06-07T10:24:15.211Z,100163.80
2019-06-07T10:26:47.429Z,100162.22
2019-06-07T10:29:19.649Z,100165.38
2019-06-07T10:31:51.916Z,100160.06
2019-06-07T10:34:24.231Z,100165.28
2019-06-07T10:36:56.574Z,100164.61
2019-06-07T10:39:28.792Z,100161.78
2019-06-07T10:42:01.118Z,100161.58
2019-06-07T10:44:33.401Z,100147.66
2019-06-07T10:47:06.016Z,100154.00
2019-06-07T10:49:38.461Z,100158.37
2019-06-07T10:52:11.616Z,100150.58
2019-06-07T10:54:44.484Z,100150.30
2019-06-07T10:57:16.739Z,100149.51
2019-06-07T10:59:49.045Z,100144.79
2019-06-07T11:02:21.276Z,100140.62
2019-06-07T11:04:53.466Z,100137.19
2019-06-07T11:07:25.783Z,100139.33
2019-06-07T11:10:07.115Z,100140.81
2019-06-07T11:12:32.441Z,100142.86
2019-06-07T11:15:06.726Z,100147.38
2019-06-07T11:17:38.958Z,100137.86
2019-06-07T11:20:12.388Z,100143.44
2019-06-07T11:22:44.828Z,100136.34
2019-06-07T11:25:18.568Z,100136.34
2019-06-07T11:27:51.121Z,100144.45
2019-06-07T11:30:23.477Z,100144.47
2019-06-07T11:32:55.691Z,100143.38
2019-06-07T11:35:27.949Z,100150.69
2019-06-07T11:38:00.202Z,100142.45
2019-06-07T11:40:35.826Z,100142.20
2019-06-07T11:43:06.735Z,100136.94
2019-06-07T11:45:38.987Z,100141.94
2019-06-07T11:48:11.483Z,100139.69
2019-06-07T11:50:43.738Z,100124.13
2019-06-07T11:53:15.909Z,100127.64
2019-06-07T11:55:48.170Z,100125.16
2019-06-07T11:58:21.837Z,100130.94
2019-06-07T12:00:54.371Z,100130.92
2019-06-07T12:03:26.593Z,100133.04
2019-06-07T12:05:58.872Z,100131.42
2019-06-07T12:08:31.157Z,100131.05
2019-06-07T12:11:03.479Z,100127.00
2019-06-07T12:13:36.905Z,100128.16
2019-06-07T12:16:09.235Z,100106.64
2019-06-07T12:18:41.501Z,100121.69
2019-06-07T12:21:13.800Z,100116.91
2019-06-07T12:23:46.065Z,100113.69
2019-06-07T12:26:18.666Z,100106.40
2019-06-07T12:28:51.066Z,100106.05
2019-06-07T12:31:23.343Z,100098.05
2019-06-07T12:33:55.554Z,100107.53
2019-06-07T12:36:27.791Z,100095.34
2019-06-07T12:38:59.993Z,100096.90
2019-06-07T12:41:32.239Z,100092.18
2019-06-07T12:44:05.906Z,100094.05
2019-06-07T12:46:38.161Z,100090.50
2019-06-07T12:49:10.427Z,100086.97
2019-06-07T12:51:42.695Z,100080.52
2019-06-07T12:54:15.441Z,100091.69
2019-06-07T12:56:47.782Z,100081.69
2019-06-07T12:59:20.074Z,100076.86
2019-06-07T13:01:52.329Z,100073.05
2019-06-07T13:04:25.059Z,100067.98
2019-06-07T13:06:57.747Z,100050.59
2019-06-07T13:09:30.014Z,100053.03
2019-06-07T13:12:02.721Z,100058.86
2019-06-07T13:14:35.217Z,100047.68
2019-06-07T13:17:07.475Z,100048.13
2019-06-07T13:19:39.729Z,100044.81
2019-06-07T13:22:11.985Z,100050.02
2019-06-07T13:24:44.238Z,100054.06
2019-06-07T13:27:16.503Z,100044.62
2019-06-07T13:29:48.864Z,100041.83
2019-06-07T13:32:21.659Z,100039.72
2019-06-07T13:34:53.895Z,100036.11
2019-06-07T13:37:27.652Z,100049.98
2019-06-07T13:40:00.307Z,100041.65
2019-06-07T13:42:32.648Z,100038.59
2019-06-07T13:45:07.033Z,100041.84
2019-06-07T13:47:39.275Z,100048.10
2019-06-07T13:50:11.942Z,100045.62
2019-06-07T13:52:46.303Z,100044.35
2019-06-07T13:55:19.985Z,100042.55
2019-06-07T13:57:52.378Z,100043.11
2019-06-07T14:00:24.910Z,100048.00
2019-06-07T14:02:57.481Z,100046.25
2019-06-07T14:05:29.750Z,100045.47
2019-06-07T14:08:02.017Z,100049.72
2019-06-07T14:10:34.263Z,100040.25
2019-06-07T14:13:06.690Z,100037.73
2019-06-07T14:15:39.090Z,100034.38
2019-06-07T14:18:11.510Z,100037.95
2019-06-07T14:20:44.786Z,100036.80
2019-06-07T14:23:16.961Z,100027.21
2019-06-07T14:25:49.195Z,100020.36
2019-06-07T14:28:24.683Z,100024.02
2019-06-07T14:30:56.604Z,100020.50
2019-06-07T14:33:30.648Z,100021.67
2019-06-07T14:36:02.922Z,100035.08
2019-06-07T14:38:37.475Z,100073.73
2019-06-07T14:41:09.169Z,100092.04
2019-06-07T14:43:43.868Z,100107.16
2019-06-07T14:46:16.120Z,100114.89
2019-06-07T14:48:48.495Z,100107.05
2019-06-07T14:51:20.846Z,100093.50
2019-06-07T14:53:53.127Z,100080.38
2019-06-07T14:56:26.972Z,100083.53
2019-06-07T14:58:59.598Z,100072.59
2019-06-07T15:01:33.478Z,100074.57
2019-06-07T15:04:06.028Z,100072.69
2019-06-07T15:06:38.951Z,100054.80
2019-06-07T15:09:11.394Z,100056.08
2019-06-07T15:11:43.663Z,100058.16
2019-06-07T15:14:16.967Z,100060.86
2019-06-07T15:16:49.632Z,100064.92
2019-06-07T15:19:24.137Z,100063.67
2019-06-07T15:21:55.801Z,100057.34
2019-06-07T15:24:28.162Z,100059.98
2019-06-07T15:27:00.408Z,100061.55
2019-06-07T15:29:33.827Z,100064.42
2019-06-07T15:32:06.524Z,100070.94
2019-06-07T15:34:38.697Z,100074.30
2019-06-07T15:37:10.973Z,100070.50
2019-06-07T15:39:43.353Z,100077.02
2019-06-07T15:42:15.610Z,100072.86
2019-06-07T15:44:47.897Z,100064.73
2019-06-07T15:47:20.169Z,100060.52
2019-06-07T15:49:52.469Z,100065.06
2019-06-07T15:52:24.647Z,100058.13
2019-06-07T15:54:56.938Z,100059.83
2019-06-07T15:57:30.959Z,100050.69
2019-06-07T16:00:04.475Z,100048.82
2019-06-07T16:02:37.955Z,100047.37
2019-06-07T16:05:10.314Z,100050.56
2019-06-07T16:07:43.548Z,100045.33
2019-06-07T16:10:16.644Z,100040.94
2019-06-07T16:13:00.197Z,100050.82
2019-06-07T16:15:23.796Z,100042.93
2019-06-07T16:17:56.235Z,100034.29
2019-06-07T16:20:28.523Z,100039.55
2019-06-07T16:23:00.717Z,100037.88
2019-06-07T16:25:33.976Z,100039.14
2019-06-07T16:28:06.287Z,100037.53
2019-06-07T16:30:38.598Z,100044.81
2019-06-07T16:33:11.105Z,100047.30
2019-06-07T16:35:43.386Z,100044.06
2019-06-07T16:38:16.677Z,100053.08
2019-06-07T16:40:48.926Z,100057.06
2019-06-07T16:43:21.186Z,100058.63
2019-06-07T16:45:53.372Z,100060.50
2019-06-07T16:48:25.623Z,100062.06
2019-06-07T16:50:57.793Z,100067.72
2019-06-07T16:53:30.059Z,100060.48
2019-06-07T16:56:02.454Z,100067.72
2019-06-07T16:58:35.978Z,100071.30
2019-06-07T17:01:08.218Z,100078.53
2019-06-07T17:03:41.449Z,100077.05
2019-06-07T17:06:14.030Z,100079.45
2019-06-07T17:08:46.389Z,100081.56
2019-06-07T17:11:18.707Z,100074.81
2019-06-07T17:13:50.997Z,100078.16
2019-06-07T17:16:23.456Z,100076.77
2019-06-07T17:18:55.886Z,100080.42
2019-06-07T17:21:28.091Z,100082.19
2019-06-07T17:24:00.376Z,100078.31
2019-06-07T17:26:32.754Z,100075.66
2019-06-07T17:29:06.234Z,100076.80
2019-06-07T17:31:39.795Z,100087.48
2019-06-07T17:34:12.203Z,100085.95
2019-06-07T17:36:46.443Z,100089.16
2019-06-07T17:39:19.943Z,100081.65
2019-06-07T17:42:01.797Z,100081.30
2019-06-07T17:44:26.157Z,100086.09
2019-06-07T17:46:58.422Z,100087.03
2019-06-07T17:49:30.704Z,100093.06
2019-06-07T17:52:02.940Z,100091.80
2019-06-07T17:54:35.140Z,100102.59
2019-06-07T17:57:07.431Z,100097.41
2019-06-07T17:59:39.669Z,100097.86
2019-06-07T18:02:15.388Z,100097.28
2019-06-07T18:04:47.160Z,100101.52
2019-06-07T18:07:20.632Z,100108.55
2019-06-07T18:09:53.717Z,100103.39
2019-06-07T18:12:25.974Z,100104.58
2019-06-07T18:14:58.227Z,100111.19
2019-06-07T18:17:34.525Z,100112.42
2019-06-07T18:20:07.950Z,100117.42
2019-06-07T18:22:40.282Z,100117.77
2019-06-07T18:25:12.570Z,100122.08
2019-06-07T18:27:44.845Z,100123.48
2019-06-07T18:30:17.057Z,100124.55
2019-06-07T18:32:49.316Z,100135.11
2019-06-07T18:35:21.599Z,100135.06
2019-06-07T18:37:55.094Z,100139.27
2019-06-07T18:40:30.447Z,100131.95
2019-06-07T18:43:02.922Z,100133.70
2019-06-07T18:45:35.208Z,100138.81
2019-06-07T18:48:07.399Z,100137.45
2019-06-07T18:50:39.589Z,100143.62
2019-06-07T18:53:11.837Z,100144.52
2019-06-07T18:55:44.215Z,100142.01
2019-06-07T18:58:16.555Z,100144.40
2019-06-07T19:00:49.834Z,100139.00
2019-06-07T19:03:23.679Z,100139.84
2019-06-07T19:05:56.329Z,100140.75
2019-06-07T19:08:28.671Z,100140.95
2019-06-07T19:11:00.932Z,100146.45
2019-06-07T19:13:33.202Z,100148.28
2019-06-07T19:16:05.388Z,100151.65
2019-06-07T19:18:37.904Z,100155.09
2019-06-07T19:21:10.284Z,100149.00
2019-06-07T19:23:42.563Z,100147.39
2019-06-07T19:26:14.805Z,100146.45
2019-06-07T19:28:47.057Z,100154.70
2019-06-07T19:31:19.351Z,100152.11
2019-06-07T19:33:51.567Z,100147.09
2019-06-07T19:36:23.946Z,100146.83
2019-06-07T19:38:56.240Z,100156.94
2019-06-07T19:41:29.318Z,100160.52
2019-06-07T19:44:02.436Z,100156.81
2019-06-07T19:46:34.903Z,100157.40
2019-06-07T19:49:07.162Z,100163.52
2019-06-07T19:51:39.423Z,100159.52
2019-06-07T19:54:11.698Z,100155.67
2019-06-07T19:56:43.947Z,100156.77
2019-06-07T19:59:16.201Z,100163.77
2019-06-07T20:01:48.476Z,100165.54
2019-06-07T20:04:20.761Z,100165.38
2019-06-07T20:06:54.079Z,100171.22
2019-06-07T20:09:26.523Z,100165.61
2019-06-07T20:11:58.783Z,100166.83
2019-06-07T20:14:31.064Z,100168.91
2019-06-07T20:17:03.555Z,100168.77
2019-06-07T20:19:36.058Z,100175.43
2019-06-07T20:22:09.575Z,100175.46
2019-06-07T20:24:42.101Z,100175.19
2019-06-07T20:27:15.580Z,100173.20
2019-06-07T20:29:47.857Z,100179.04
2019-06-07T20:32:20.111Z,100176.55
2019-06-07T20:34:52.353Z,100176.06
2019-06-07T20:37:24.649Z,100182.21
2019-06-07T20:39:57.063Z,100178.44
2019-06-07T20:42:29.348Z,100169.63
2019-06-07T20:45:02.120Z,100173.55
2019-06-07T20:47:34.635Z,100177.08
2019-06-07T20:50:10.373Z,100170.14
2019-06-07T20:52:42.575Z,100171.36
2019-06-07T20:55:14.930Z,100164.93
2019-06-07T20:57:47.141Z,100164.98
2019-06-07T21:00:21.919Z,100156.34
2019-06-07T21:02:53.399Z,100158.72
2019-06-07T21:05:25.650Z,100158.58
2019-06-07T21:07:59.236Z,100164.02
2019-06-07T21:10:31.758Z,100164.02
2019-06-07T21:13:04.018Z,100159.13
2019-06-07T21:15:48.383Z,100160.48
2019-06-07T21:18:19.113Z,100166.08
2019-06-07T21:20:44.271Z,100165.09
2019-06-07T21:23:16.711Z,100163.78
2019-06-07T21:25:48.897Z,100162.10
2019-06-07T21:28:21.174Z,100163.32
2019-06-07T21:30:53.427Z,100165.87
2019-06-07T21:33:25.692Z,100163.66
2019-06-07T21:35:57.893Z,100163.69
2019-06-07T21:38:32.718Z,100153.72
2019-06-07T21:41:06.100Z,100155.08
2019-06-07T21:43:38.386Z,100165.96
2019-06-07T21:46:17.301Z,100169.55
2019-06-07T21:48:44.623Z,100168.59
2019-06-07T21:51:16.789Z,100175.09
2019-06-07T21:53:49.078Z,100176.80
2019-06-07T21:56:21.260Z,100178.34
2019-06-07T21:58:53.511Z,100174.44
2019-06-07T22:01:27.544Z,100169.86
2019-06-07T22:03:59.788Z,100171.22
2019-06-07T22:06:31.962Z,100176.64
2019-06-07T22:09:05.670Z,100181.42
2019-06-07T22:11:37.995Z,100170.72
2019-06-07T22:14:10.497Z,100172.28
2019-06-07T22:16:42.796Z,100169.92
2019-06-07T22:19:15.458Z,100169.63
2019-06-07T22:22:01.805Z,100165.45
2019-06-07T22:24:21.942Z,100162.38
2019-06-07T22:26:54.209Z,100165.61
2019-06-07T22:29:26.458Z,100163.59
2019-06-07T22:31:58.645Z,100165.30
2019-06-07T22:34:30.854Z,100169.22
2019-06-07T22:37:03.118Z,100167.20
2019-06-07T22:39:35.437Z,100160.43
2019-06-07T22:42:09.244Z,100169.43
2019-06-07T22:44:41.510Z,100163.70
2019-06-07T22:47:14.067Z,100159.82
2019-06-07T22:49:46.461Z,100153.19
2019-06-07T22:52:18.670Z,100149.13
2019-06-07T22:54:50.934Z,100152.88
2019-06-07T22:57:24.874Z,100152.19
2019-06-07T22:59:57.117Z,100157.61
2019-06-07T23:02:29.388Z,100151.72
2019-06-07T23:05:04.796Z,100146.64
2019-06-07T23:07:35.610Z,100150.38
2019-06-07T23:10:09.030Z,100150.73
2019-06-07T23:12:41.574Z,100154.95
2019-06-07T23:15:13.841Z,100159.37
2019-06-07T23:17:46.087Z,100151.92
2019-06-07T23:20:18.460Z,100152.58
2019-06-07T23:22:50.763Z,100155.64
2019-06-07T23:25:24.639Z,100163.59
2019-06-07T23:27:57.335Z,100158.01
2019-06-07T23:30:29.501Z,100161.07
2019-06-07T23:33:01.770Z,100157.85
2019-06-07T23:35:34.031Z,100160.73
2019-06-07T23:38:06.303Z,100164.10
2019-06-07T23:40:38.712Z,100168.71
2019-06-07T23:43:11.659Z,100168.87
2019-06-07T23:45:43.935Z,100168.02
2019-06-07T23:48:17.406Z,100161.39
2019-06-07T23:50:49.748Z,100164.64
2019-06-07T23:53:22.272Z,100158.02
2019-06-07T23:55:54.473Z,100156.31
2019-06-07T23:58:26.653Z,100150.23
